»·PEaware :: TPX621 KPHX-KLAS

TPX621 :: KPHX-KLAS

FLIGHT INFORMATION

Flight Status: Arrived
Operator: ATP Experience
More flights by this operator :: More flights under this callsign
Pilot: Erik S. (3779)
Aircraft: BOEING 737-300
(B733)
More flights by this aircraft type
Origin: KPHX Phoenix Sky Harbor Intl
United States
Destination: KLAS McCarran Intl
United States
More flights between these airports :: More routes between these airports
Route: +MAYSA5 SISIE IGM TYSSN5
File this flight plan on PilotEdge
Remarks:
Altitude:
(Current/Filed)
26,000ft
Speed:
(Current/Filed)
478kts
Departed: 22-Sep-17 10:52 AM
Arrived: 22-Sep-17 11:35 AM
Distance/Time
Traveled:
221nm/0:42
Distance/Time
To Go:
Arrived

Flight Plot

Page will automatically refresh every two minutes.

Flight plan parsing failed; only flown route is shown


Map Options




Map Legend


Flown Route
Filed Route
Departure Airport
Arrival Airport
Navaid (VOR, NDB)
Fix

Horizontal Profiles

Position Reports

Time Latitude Longitude Heading Altitude Ground
Speed
22-Sep-17 10:46 33.433448 -111.993888 326 1142ft 0kts
22-Sep-17 10:47 33.433448 -111.993888 326 1142ft 0kts
22-Sep-17 10:48 33.433448 -111.993888 326 1142ft 0kts
22-Sep-17 10:49 33.433448 -111.993888 326 1142ft 0kts
22-Sep-17 10:50 33.433323 -111.993786 326 1142ft 0kts
22-Sep-17 10:51 33.432929 -111.993636 28 1142ft 0kts
22-Sep-17 10:52 33.432929 -111.993636 28 1142ft 0kts
22-Sep-17 10:53 33.433124 -111.993685 288 1142ft 6kts
22-Sep-17 10:54 33.432172 -111.993384 194 1142ft 0kts
22-Sep-17 10:55 33.431375 -111.993487 187 1142ft 14kts
22-Sep-17 10:56 33.430783 -112.019253 268 1600ft 177kts
22-Sep-17 10:57 33.429670 -112.072572 267 4130ft 219kts
22-Sep-17 10:58 33.489360 -112.135321 322 7369ft 298kts
22-Sep-17 10:59 33.547267 -112.180085 339 10548ft 326kts
22-Sep-17 11:00 33.659860 -112.216466 340 13794ft 379kts
22-Sep-17 11:01 33.763846 -112.250067 339 16852ft 399kts
22-Sep-17 11:02 33.854945 -112.279579 338 19184ft 415kts
22-Sep-17 11:03 33.967250 -112.316049 337 21771ft 432kts
22-Sep-17 11:04 34.085175 -112.393372 308 24504ft 417kts
22-Sep-17 11:05 34.159611 -112.469716 309 25819ft 426kts
22-Sep-17 11:06 34.251141 -112.562085 309 25982ft 439kts
22-Sep-17 11:07 34.339017 -112.650915 310 25981ft 445kts
22-Sep-17 11:08 34.423175 -112.736261 310 25980ft 445kts
22-Sep-17 11:09 34.512419 -112.827515 310 25981ft 445kts
22-Sep-17 11:10 34.605754 -112.924038 307 25984ft 436kts
22-Sep-17 11:11 34.695192 -113.022214 307 25980ft 433kts
22-Sep-17 11:12 34.784337 -113.119763 307 25643ft 437kts
22-Sep-17 11:13 34.873473 -113.217029 307 24034ft 430kts
22-Sep-17 11:14 34.963488 -113.316271 308 23937ft 443kts
22-Sep-17 11:15 35.031103 -113.434876 290 23943ft 425kts
22-Sep-17 11:16 35.089178 -113.560354 291 23936ft 426kts
22-Sep-17 11:17 35.147542 -113.686461 291 23936ft 426kts
22-Sep-17 11:18 35.205516 -113.812181 291 23935ft 426kts
22-Sep-17 11:19 35.261830 -113.931665 299 23864ft 377kts
22-Sep-17 11:20 35.346135 -114.014084 314 21804ft 395kts
22-Sep-17 11:21 35.431549 -114.093426 315 19516ft 378kts
22-Sep-17 11:22 35.514211 -114.168552 316 17422ft 362kts
22-Sep-17 11:23 35.592721 -114.241495 317 15331ft 350kts
22-Sep-17 11:24 35.668641 -114.312497 318 13312ft 338kts
22-Sep-17 11:25 35.741289 -114.380345 323 12008ft 309kts
22-Sep-17 11:26 35.819872 -114.419591 335 12012ft 310kts
22-Sep-17 11:27 35.900114 -114.458072 335 11606ft 308kts
22-Sep-17 11:28 35.978029 -114.495084 335 10990ft 297kts
22-Sep-17 11:29 36.044669 -114.544480 283 10702ft 277kts
22-Sep-17 11:30 36.057140 -114.636299 280 8861ft 257kts
22-Sep-17 11:31 36.070104 -114.715696 281 8063ft 224kts
22-Sep-17 11:32 36.075925 -114.792471 270 8016ft 227kts
22-Sep-17 11:33 36.075180 -114.871089 268 6692ft 226kts
22-Sep-17 11:34 36.072522 -114.944107 272 4717ft 195kts
22-Sep-17 11:35 36.073619 -115.003144 272 4096ft 156kts
22-Sep-17 11:36 36.073668 -115.052589 272 3335ft 135kts
22-Sep-17 11:37 36.073782 -115.098756 271 2604ft 134kts
22-Sep-17 11:38 36.073653 -115.141202 268 2148ft 80kts
22-Sep-17 11:39 36.075144 -115.146517 342 2148ft 0kts
22-Sep-17 11:40 36.075144 -115.146517 342 2148ft 0kts
22-Sep-17 11:41 36.078347 -115.144712 93 2148ft 22kts
22-Sep-17 11:42 36.079782 -115.138490 33 2148ft 18kts
22-Sep-17 11:43 36.080732 -115.138522 314 2148ft 0kts

Navigation Log

Ident Type
Flight plan parsing failed, navigation log unavailable